Uffculme, United Kingdom
Current Conditions -  °F | °C
As of 5:50 PM on Sunday 25 Jan 2015 (Local Time) from EGTE Reporting Station
Broken Clouds Broken Clouds  
Wind Chill:   Ceiling: 2800
Heat Index:   Visibility: 5mi
Dew Point:   Wind: 3mph
Humidity: 87%   Direction: 190°S
Pressure: 30.39"   Gusts: NA
Location:  50.91°N, 3.33°W
Report Text: EGTE 251750Z 19003KT 8000 SCT020 BKN028 08/06 Q1029
Loading
Personal Weather Stations






























Interactive Weather Map New forecast layout! Learn more

10-Day Weather Forecast

Advertisements
Track Severe Weather on mobile